sensor_id;sensor_type;location;lat;lon;timestamp;temperature;humidity
2897;DHT22;1458;49.728;9.228;2022-11-20T00:01:24;2.80;99.90
2897;DHT22;1458;49.728;9.228;2022-11-20T00:03:54;2.90;99.90
2897;DHT22;1458;49.728;9.228;2022-11-20T00:06:24;2.80;99.90
2897;DHT22;1458;49.728;9.228;2022-11-20T00:08:54;2.90;99.90
2897;DHT22;1458;49.728;9.228;2022-11-20T00:15:21;3.30;99.90
2897;DHT22;1458;49.728;9.228;2022-11-20T00:17:48;3.10;99.90
2897;DHT22;1458;49.728;9.228;2022-11-20T00:20:16;3.00;99.90
2897;DHT22;1458;49.728;9.228;2022-11-20T00:22:45;2.90;99.90
2897;DHT22;1458;49.728;9.228;2022-11-20T00:25:12;2.90;99.90
2897;DHT22;1458;49.728;9.228;2022-11-20T00:27:40;2.90;99.90
2897;DHT22;1458;49.728;9.228;2022-11-20T00:30:08;2.90;99.90
2897;DHT22;1458;49.728;9.228;2022-11-20T00:32:36;2.90;99.90
2897;DHT22;1458;49.728;9.228;2022-11-20T00:35:04;2.90;99.90
2897;DHT22;1458;49.728;9.228;2022-11-20T00:37:32;2.90;99.90
2897;DHT22;1458;49.728;9.228;2022-11-20T00:40:01;3.10;99.90
2897;DHT22;1458;49.728;9.228;2022-11-20T00:42:28;3.30;99.90
2897;DHT22;1458;49.728;9.228;2022-11-20T00:44:58;3.20;99.90
2897;DHT22;1458;49.728;9.228;2022-11-20T00:47:25;3.20;99.90
2897;DHT22;1458;49.728;9.228;2022-11-20T00:49:53;3.10;99.90
2897;DHT22;1458;49.728;9.228;2022-11-20T00:52:21;2.90;99.90
2897;DHT22;1458;49.728;9.228;2022-11-20T00:54:48;2.70;99.90
2897;DHT22;1458;49.728;9.228;2022-11-20T00:57:17;2.80;99.90
2897;DHT22;1458;49.728;9.228;2022-11-20T00:59:45;2.70;99.90
2897;DHT22;1458;49.728;9.228;2022-11-20T01:02:12;2.60;99.90
2897;DHT22;1458;49.728;9.228;2022-11-20T01:04:41;2.50;99.90
2897;DHT22;1458;49.728;9.228;2022-11-20T01:07:09;2.40;99.90
2897;DHT22;1458;49.728;9.228;2022-11-20T01:09:36;2.40;99.90
2897;DHT22;1458;49.728;9.228;2022-11-20T01:12:04;2.50;99.90
2897;DHT22;1458;49.728;9.228;2022-11-20T01:14:33;2.60;99.90
2897;DHT22;1458;49.728;9.228;2022-11-20T01:17:00;2.60;99.90
2897;DHT22;1458;49.728;9.228;2022-11-20T01:19:28;2.50;99.90
2897;DHT22;1458;49.728;9.228;2022-11-20T01:21:55;2.40;99.90
2897;DHT22;1458;49.728;9.228;2022-11-20T01:24:23;2.40;99.90
2897;DHT22;1458;49.728;9.228;2022-11-20T01:26:51;2.30;99.90
2897;DHT22;1458;49.728;9.228;2022-11-20T01:29:20;2.40;99.90
2897;DHT22;1458;49.728;9.228;2022-11-20T01:31:51;2.50;99.90
2897;DHT22;1458;49.728;9.228;2022-11-20T01:34:20;2.50;99.90
2897;DHT22;1458;49.728;9.228;2022-11-20T01:36:49;2.50;99.90
2897;DHT22;1458;49.728;9.228;2022-11-20T01:39:19;2.40;99.90
2897;DHT22;1458;49.728;9.228;2022-11-20T01:41:49;2.40;99.90
2897;DHT22;1458;49.728;9.228;2022-11-20T01:44:58;2.30;99.90
2897;DHT22;1458;49.728;9.228;2022-11-20T01:47:37;2.20;99.90
2897;DHT22;1458;49.728;9.228;2022-11-20T01:50:13;2.10;99.90
2897;DHT22;1458;49.728;9.228;2022-11-20T01:52:45;2.10;99.90
2897;DHT22;1458;49.728;9.228;2022-11-20T01:55:17;2.20;99.90
2897;DHT22;1458;49.728;9.228;2022-11-20T01:57:48;2.20;99.90
2897;DHT22;1458;49.728;9.228;2022-11-20T02:00:17;2.20;99.90
2897;DHT22;1458;49.728;9.228;2022-11-20T02:02:51;2.20;99.90
2897;DHT22;1458;49.728;9.228;2022-11-20T02:05:25;2.30;99.90
2897;DHT22;1458;49.728;9.228;2022-11-20T02:07:58;2.40;99.90
2897;DHT22;1458;49.728;9.228;2022-11-20T02:10:26;2.50;99.90
2897;DHT22;1458;49.728;9.228;2022-11-20T02:12:55;2.70;99.90
2897;DHT22;1458;49.728;9.228;2022-11-20T02:15:40;2.80;99.90
2897;DHT22;1458;49.728;9.228;2022-11-20T02:18:09;2.70;99.90
2897;DHT22;1458;49.728;9.228;2022-11-20T02:20:38;2.70;99.90
2897;DHT22;1458;49.728;9.228;2022-11-20T02:23:11;2.60;99.90
2897;DHT22;1458;49.728;9.228;2022-11-20T02:25:41;2.60;99.90
2897;DHT22;1458;49.728;9.228;2022-11-20T02:28:11;2.60;99.90
2897;DHT22;1458;49.728;9.228;2022-11-20T02:30:38;2.70;99.90
2897;DHT22;1458;49.728;9.228;2022-11-20T02:33:06;2.70;99.90
2897;DHT22;1458;49.728;9.228;2022-11-20T02:35:52;2.80;99.90
2897;DHT22;1458;49.728;9.228;2022-11-20T02:38:22;2.90;99.90
2897;DHT22;1458;49.728;9.228;2022-11-20T02:40:51;2.80;99.90
2897;DHT22;1458;49.728;9.228;2022-11-20T02:43:18;2.80;99.90
2897;DHT22;1458;49.728;9.228;2022-11-20T02:45:46;2.70;99.90
2897;DHT22;1458;49.728;9.228;2022-11-20T02:48:13;2.80;99.90
2897;DHT22;1458;49.728;9.228;2022-11-20T02:50:41;2.70;99.90
2897;DHT22;1458;49.728;9.228;2022-11-20T02:53:09;2.90;99.90
2897;DHT22;1458;49.728;9.228;2022-11-20T02:55:37;3.00;99.90
2897;DHT22;1458;49.728;9.228;2022-11-20T02:58:09;3.00;99.90
2897;DHT22;1458;49.728;9.228;2022-11-20T03:00:39;2.80;99.90
2897;DHT22;1458;49.728;9.228;2022-11-20T03:03:06;2.90;99.90
2897;DHT22;1458;49.728;9.228;2022-11-20T03:05:34;2.90;99.90
2897;DHT22;1458;49.728;9.228;2022-11-20T03:08:09;2.70;99.90
2897;DHT22;1458;49.728;9.228;2022-11-20T03:10:36;2.80;99.90
2897;DHT22;1458;49.728;9.228;2022-11-20T03:13:04;2.80;99.90
2897;DHT22;1458;49.728;9.228;2022-11-20T03:15:35;2.80;99.90
2897;DHT22;1458;49.728;9.228;2022-11-20T03:18:03;2.90;99.90
2897;DHT22;1458;49.728;9.228;2022-11-20T03:20:33;2.90;99.90
2897;DHT22;1458;49.728;9.228;2022-11-20T03:23:01;2.60;99.90
2897;DHT22;1458;49.728;9.228;2022-11-20T03:25:29;2.70;99.90
2897;DHT22;1458;49.728;9.228;2022-11-20T03:27:57;2.60;99.90
2897;DHT22;1458;49.728;9.228;2022-11-20T03:30:26;2.70;99.90
2897;DHT22;1458;49.728;9.228;2022-11-20T03:33:43;2.70;99.90
2897;DHT22;1458;49.728;9.228;2022-11-20T03:36:46;2.80;99.90
2897;DHT22;1458;49.728;9.228;2022-11-20T03:43:29;2.90;99.90
2897;DHT22;1458;49.728;9.228;2022-11-20T03:46:45;2.80;99.90
2897;DHT22;1458;49.728;9.228;2022-11-20T03:49:37;2.90;99.90
2897;DHT22;1458;49.728;9.228;2022-11-20T03:52:04;2.90;99.90
2897;DHT22;1458;49.728;9.228;2022-11-20T03:54:32;2.80;99.90
2897;DHT22;1458;49.728;9.228;2022-11-20T03:56:59;2.90;99.90
2897;DHT22;1458;49.728;9.228;2022-11-20T03:59:27;2.90;99.90
2897;DHT22;1458;49.728;9.228;2022-11-20T04:01:54;2.70;99.90
2897;DHT22;1458;49.728;9.228;2022-11-20T04:04:22;2.70;99.90
2897;DHT22;1458;49.728;9.228;2022-11-20T04:06:51;2.80;99.90
2897;DHT22;1458;49.728;9.228;2022-11-20T04:09:18;2.90;99.90
2897;DHT22;1458;49.728;9.228;2022-11-20T04:11:46;2.90;99.90
2897;DHT22;1458;49.728;9.228;2022-11-20T04:14:14;2.90;99.90
2897;DHT22;1458;49.728;9.228;2022-11-20T04:16:43;2.80;99.90
2897;DHT22;1458;49.728;9.228;2022-11-20T04:19:12;2.90;99.90
2897;DHT22;1458;49.728;9.228;2022-11-20T04:21:41;3.00;99.90
2897;DHT22;1458;49.728;9.228;2022-11-20T04:24:10;3.20;99.90
2897;DHT22;1458;49.728;9.228;2022-11-20T04:26:38;3.20;99.90
2897;DHT22;1458;49.728;9.228;2022-11-20T04:29:06;3.20;99.90
2897;DHT22;1458;49.728;9.228;2022-11-20T04:31:37;3.00;99.90
2897;DHT22;1458;49.728;9.228;2022-11-20T04:34:06;2.90;99.90
2897;DHT22;1458;49.728;9.228;2022-11-20T04:36:34;2.90;99.90
2897;DHT22;1458;49.728;9.228;2022-11-20T04:39:04;3.00;99.90
2897;DHT22;1458;49.728;9.228;2022-11-20T04:41:35;3.00;99.90
2897;DHT22;1458;49.728;9.228;2022-11-20T04:44:05;3.00;99.90
2897;DHT22;1458;49.728;9.228;2022-11-20T04:46:34;3.20;99.90
2897;DHT22;1458;49.728;9.228;2022-11-20T04:49:04;3.20;99.90
2897;DHT22;1458;49.728;9.228;2022-11-20T04:51:32;3.20;99.90
2897;DHT22;1458;49.728;9.228;2022-11-20T04:54:00;3.20;99.90
2897;DHT22;1458;49.728;9.228;2022-11-20T04:56:28;3.10;99.90
2897;DHT22;1458;49.728;9.228;2022-11-20T04:59:00;3.10;99.90
2897;DHT22;1458;49.728;9.228;2022-11-20T05:01:28;3.20;99.90
2897;DHT22;1458;49.728;9.228;2022-11-20T05:03:55;3.10;99.90
2897;DHT22;1458;49.728;9.228;2022-11-20T05:06:23;3.10;99.90
2897;DHT22;1458;49.728;9.228;2022-11-20T05:08:50;3.10;99.90
2897;DHT22;1458;49.728;9.228;2022-11-20T05:11:20;3.00;99.90
2897;DHT22;1458;49.728;9.228;2022-11-20T05:13:48;3.10;99.90
2897;DHT22;1458;49.728;9.228;2022-11-20T05:16:18;3.20;99.90
2897;DHT22;1458;49.728;9.228;2022-11-20T05:18:47;3.20;99.90
2897;DHT22;1458;49.728;9.228;2022-11-20T05:21:15;3.30;99.90
2897;DHT22;1458;49.728;9.228;2022-11-20T05:23:43;3.30;99.90
2897;DHT22;1458;49.728;9.228;2022-11-20T05:26:14;3.30;99.90
2897;DHT22;1458;49.728;9.228;2022-11-20T05:28:43;3.30;99.90
2897;DHT22;1458;49.728;9.228;2022-11-20T05:31:12;3.20;99.90
2897;DHT22;1458;49.728;9.228;2022-11-20T05:33:43;3.30;99.90
2897;DHT22;1458;49.728;9.228;2022-11-20T05:36:12;3.40;99.90
2897;DHT22;1458;49.728;9.228;2022-11-20T05:38:41;3.50;99.90
2897;DHT22;1458;49.728;9.228;2022-11-20T05:41:11;3.60;99.90
2897;DHT22;1458;49.728;9.228;2022-11-20T05:43:40;3.50;99.90
2897;DHT22;1458;49.728;9.228;2022-11-20T05:46:11;3.40;99.90
2897;DHT22;1458;49.728;9.228;2022-11-20T05:48:42;3.40;99.90
2897;DHT22;1458;49.728;9.228;2022-11-20T05:51:12;3.40;99.90
2897;DHT22;1458;49.728;9.228;2022-11-20T05:53:41;3.60;99.90
2897;DHT22;1458;49.728;9.228;2022-11-20T05:56:11;3.50;99.90
2897;DHT22;1458;49.728;9.228;2022-11-20T05:58:40;3.50;99.90
2897;DHT22;1458;49.728;9.228;2022-11-20T06:01:10;3.50;99.90
2897;DHT22;1458;49.728;9.228;2022-11-20T06:03:39;3.50;99.90
2897;DHT22;1458;49.728;9.228;2022-11-20T06:06:11;3.50;99.90
2897;DHT22;1458;49.728;9.228;2022-11-20T06:08:39;3.40;99.90
2897;DHT22;1458;49.728;9.228;2022-11-20T06:11:09;3.40;99.90
2897;DHT22;1458;49.728;9.228;2022-11-20T06:13:38;3.40;99.90
2897;DHT22;1458;49.728;9.228;2022-11-20T06:16:06;3.40;99.90
2897;DHT22;1458;49.728;9.228;2022-11-20T06:18:33;3.40;99.90
2897;DHT22;1458;49.728;9.228;2022-11-20T06:21:04;3.30;99.90
2897;DHT22;1458;49.728;9.228;2022-11-20T06:23:33;3.40;99.90
2897;DHT22;1458;49.728;9.228;2022-11-20T06:26:02;3.40;99.90
2897;DHT22;1458;49.728;9.228;2022-11-20T06:28:30;3.50;99.90
2897;DHT22;1458;49.728;9.228;2022-11-20T06:30:58;3.50;99.90
2897;DHT22;1458;49.728;9.228;2022-11-20T06:33:26;3.60;99.90
2897;DHT22;1458;49.728;9.228;2022-11-20T06:35:56;3.60;99.90
2897;DHT22;1458;49.728;9.228;2022-11-20T06:38:25;3.60;99.90
2897;DHT22;1458;49.728;9.228;2022-11-20T06:40:54;3.60;99.90
2897;DHT22;1458;49.728;9.228;2022-11-20T06:43:23;3.60;99.90
2897;DHT22;1458;49.728;9.228;2022-11-20T06:45:52;3.60;99.90
2897;DHT22;1458;49.728;9.228;2022-11-20T06:48:22;3.60;99.90
2897;DHT22;1458;49.728;9.228;2022-11-20T06:50:50;3.70;99.90
2897;DHT22;1458;49.728;9.228;2022-11-20T06:53:18;3.70;99.90
2897;DHT22;1458;49.728;9.228;2022-11-20T06:55:47;3.60;99.90
2897;DHT22;1458;49.728;9.228;2022-11-20T06:58:16;3.60;99.90
2897;DHT22;1458;49.728;9.228;2022-11-20T07:00:43;3.70;99.90
2897;DHT22;1458;49.728;9.228;2022-11-20T07:03:12;3.70;99.90
2897;DHT22;1458;49.728;9.228;2022-11-20T07:05:39;3.50;99.90
2897;DHT22;1458;49.728;9.228;2022-11-20T07:08:08;3.40;99.90
2897;DHT22;1458;49.728;9.228;2022-11-20T07:10:35;3.40;99.90
2897;DHT22;1458;49.728;9.228;2022-11-20T07:13:04;3.40;99.90
2897;DHT22;1458;49.728;9.228;2022-11-20T07:15:32;3.30;99.90
2897;DHT22;1458;49.728;9.228;2022-11-20T07:18:00;3.20;99.90
2897;DHT22;1458;49.728;9.228;2022-11-20T07:20:28;3.20;99.90
2897;DHT22;1458;49.728;9.228;2022-11-20T07:22:56;3.10;99.90
2897;DHT22;1458;49.728;9.228;2022-11-20T07:25:25;3.10;99.90
2897;DHT22;1458;49.728;9.228;2022-11-20T07:27:56;3.20;99.90
2897;DHT22;1458;49.728;9.228;2022-11-20T07:30:25;3.20;99.90
2897;DHT22;1458;49.728;9.228;2022-11-20T07:32:53;3.10;99.90
2897;DHT22;1458;49.728;9.228;2022-11-20T07:35:21;3.00;99.90
2897;DHT22;1458;49.728;9.228;2022-11-20T07:37:49;3.10;99.90
2897;DHT22;1458;49.728;9.228;2022-11-20T07:40:17;3.20;99.90
2897;DHT22;1458;49.728;9.228;2022-11-20T07:46:50;3.40;99.90
2897;DHT22;1458;49.728;9.228;2022-11-20T07:49:18;3.40;99.90
2897;DHT22;1458;49.728;9.228;2022-11-20T07:51:45;3.40;99.90
2897;DHT22;1458;49.728;9.228;2022-11-20T07:54:12;3.40;99.90
2897;DHT22;1458;49.728;9.228;2022-11-20T07:56:40;3.50;99.90
2897;DHT22;1458;49.728;9.228;2022-11-20T07:59:07;3.50;99.90
2897;DHT22;1458;49.728;9.228;2022-11-20T08:01:37;3.40;99.90
2897;DHT22;1458;49.728;9.228;2022-11-20T08:04:06;3.30;99.90
2897;DHT22;1458;49.728;9.228;2022-11-20T08:06:33;3.30;99.90
2897;DHT22;1458;49.728;9.228;2022-11-20T08:09:01;3.20;99.90
2897;DHT22;1458;49.728;9.228;2022-11-20T08:11:29;3.20;99.90
2897;DHT22;1458;49.728;9.228;2022-11-20T08:14:30;3.20;99.90
2897;DHT22;1458;49.728;9.228;2022-11-20T08:17:00;3.20;99.90
2897;DHT22;1458;49.728;9.228;2022-11-20T08:19:29;3.20;99.90
2897;DHT22;1458;49.728;9.228;2022-11-20T08:21:56;3.30;99.90
2897;DHT22;1458;49.728;9.228;2022-11-20T08:24:24;3.30;99.90
2897;DHT22;1458;49.728;9.228;2022-11-20T08:26:52;3.30;99.90
2897;DHT22;1458;49.728;9.228;2022-11-20T08:29:19;3.40;99.90
2897;DHT22;1458;49.728;9.228;2022-11-20T08:31:47;3.50;99.90
2897;DHT22;1458;49.728;9.228;2022-11-20T08:34:15;3.70;99.90
2897;DHT22;1458;49.728;9.228;2022-11-20T08:36:44;3.70;99.90
2897;DHT22;1458;49.728;9.228;2022-11-20T08:39:12;3.70;99.90
2897;DHT22;1458;49.728;9.228;2022-11-20T08:41:39;3.70;99.90
2897;DHT22;1458;49.728;9.228;2022-11-20T08:44:07;3.60;99.90
2897;DHT22;1458;49.728;9.228;2022-11-20T08:46:37;3.50;99.90
2897;DHT22;1458;49.728;9.228;2022-11-20T08:49:08;3.50;99.90
2897;DHT22;1458;49.728;9.228;2022-11-20T08:51:37;3.60;99.90
2897;DHT22;1458;49.728;9.228;2022-11-20T08:54:06;3.60;99.90
2897;DHT22;1458;49.728;9.228;2022-11-20T08:56:35;3.60;99.90
2897;DHT22;1458;49.728;9.228;2022-11-20T08:59:02;3.50;99.90
2897;DHT22;1458;49.728;9.228;2022-11-20T09:01:30;3.40;99.90
2897;DHT22;1458;49.728;9.228;2022-11-20T09:03:57;3.50;99.90
2897;DHT22;1458;49.728;9.228;2022-11-20T09:06:26;3.50;99.90
2897;DHT22;1458;49.728;9.228;2022-11-20T09:08:53;3.50;99.90
2897;DHT22;1458;49.728;9.228;2022-11-20T09:11:24;3.50;99.90
2897;DHT22;1458;49.728;9.228;2022-11-20T09:13:51;3.60;99.90
2897;DHT22;1458;49.728;9.228;2022-11-20T09:16:18;3.70;99.90
2897;DHT22;1458;49.728;9.228;2022-11-20T09:18:46;3.60;99.90
2897;DHT22;1458;49.728;9.228;2022-11-20T09:21:13;3.90;99.90
2897;DHT22;1458;49.728;9.228;2022-11-20T09:23:41;4.10;99.90
2897;DHT22;1458;49.728;9.228;2022-11-20T09:26:10;4.00;99.90
2897;DHT22;1458;49.728;9.228;2022-11-20T09:28:40;4.20;99.90
2897;DHT22;1458;49.728;9.228;2022-11-20T09:31:08;4.00;99.90
2897;DHT22;1458;49.728;9.228;2022-11-20T09:33:38;4.10;99.90
2897;DHT22;1458;49.728;9.228;2022-11-20T09:36:06;4.20;99.90
2897;DHT22;1458;49.728;9.228;2022-11-20T09:38:33;4.50;99.90
2897;DHT22;1458;49.728;9.228;2022-11-20T09:41:04;4.40;99.90
2897;DHT22;1458;49.728;9.228;2022-11-20T09:43:46;4.60;99.90
2897;DHT22;1458;49.728;9.228;2022-11-20T09:46:23;4.70;99.90
2897;DHT22;1458;49.728;9.228;2022-11-20T09:49:05;4.70;99.90
2897;DHT22;1458;49.728;9.228;2022-11-20T09:51:57;4.80;99.90
2897;DHT22;1458;49.728;9.228;2022-11-20T09:54:29;4.60;99.90
2897;DHT22;1458;49.728;9.228;2022-11-20T09:57:00;4.70;99.90
2897;DHT22;1458;49.728;9.228;2022-11-20T09:59:34;4.80;99.90
2897;DHT22;1458;49.728;9.228;2022-11-20T10:02:15;4.80;99.90
2897;DHT22;1458;49.728;9.228;2022-11-20T10:04:47;4.70;99.90
2897;DHT22;1458;49.728;9.228;2022-11-20T10:07:24;4.70;99.90
2897;DHT22;1458;49.728;9.228;2022-11-20T10:09:56;4.60;99.90
2897;DHT22;1458;49.728;9.228;2022-11-20T10:12:29;4.60;99.90
2897;DHT22;1458;49.728;9.228;2022-11-20T10:15:22;4.70;99.90
2897;DHT22;1458;49.728;9.228;2022-11-20T10:18:17;4.60;99.90
2897;DHT22;1458;49.728;9.228;2022-11-20T10:20:56;4.60;99.90
2897;DHT22;1458;49.728;9.228;2022-11-20T10:23:43;4.60;99.90
2897;DHT22;1458;49.728;9.228;2022-11-20T10:26:31;4.70;99.90
2897;DHT22;1458;49.728;9.228;2022-11-20T10:29:11;4.60;99.90
2897;DHT22;1458;49.728;9.228;2022-11-20T10:31:48;4.60;99.90
2897;DHT22;1458;49.728;9.228;2022-11-20T10:34:22;4.60;99.90
2897;DHT22;1458;49.728;9.228;2022-11-20T10:36:54;4.70;99.90
2897;DHT22;1458;49.728;9.228;2022-11-20T10:39:29;4.70;99.90
2897;DHT22;1458;49.728;9.228;2022-11-20T10:42:00;4.60;99.90
2897;DHT22;1458;49.728;9.228;2022-11-20T10:44:29;4.70;99.90
2897;DHT22;1458;49.728;9.228;2022-11-20T10:47:17;5.00;99.90
2897;DHT22;1458;49.728;9.228;2022-11-20T10:49:49;4.80;99.90
2897;DHT22;1458;49.728;9.228;2022-11-20T10:52:40;5.00;99.90
2897;DHT22;1458;49.728;9.228;2022-11-20T10:55:23;5.10;99.90
2897;DHT22;1458;49.728;9.228;2022-11-20T10:58:00;5.30;99.90
2897;DHT22;1458;49.728;9.228;2022-11-20T11:00:32;5.40;99.90
2897;DHT22;1458;49.728;9.228;2022-11-20T11:03:01;5.50;99.90
2897;DHT22;1458;49.728;9.228;2022-11-20T11:05:36;5.60;99.90
2897;DHT22;1458;49.728;9.228;2022-11-20T11:08:10;5.50;99.90
2897;DHT22;1458;49.728;9.228;2022-11-20T11:10:43;5.30;99.90
2897;DHT22;1458;49.728;9.228;2022-11-20T11:13:20;5.20;99.90
2897;DHT22;1458;49.728;9.228;2022-11-20T11:15:48;5.20;99.90
2897;DHT22;1458;49.728;9.228;2022-11-20T11:18:25;5.10;99.90
2897;DHT22;1458;49.728;9.228;2022-11-20T11:20:54;5.00;99.90
2897;DHT22;1458;49.728;9.228;2022-11-20T11:23:30;4.80;99.90
2897;DHT22;1458;49.728;9.228;2022-11-20T11:26:01;4.70;99.90
2897;DHT22;1458;49.728;9.228;2022-11-20T11:28:31;4.70;99.90
2897;DHT22;1458;49.728;9.228;2022-11-20T11:30:59;4.80;99.90
2897;DHT22;1458;49.728;9.228;2022-11-20T11:33:29;4.80;99.90
2897;DHT22;1458;49.728;9.228;2022-11-20T11:36:00;4.90;99.90
2897;DHT22;1458;49.728;9.228;2022-11-20T11:38:32;5.10;99.90
2897;DHT22;1458;49.728;9.228;2022-11-20T11:41:03;5.10;99.90
2897;DHT22;1458;49.728;9.228;2022-11-20T11:43:34;5.10;99.90
2897;DHT22;1458;49.728;9.228;2022-11-20T11:46:32;5.30;99.90
2897;DHT22;1458;49.728;9.228;2022-11-20T11:49:14;5.40;99.90
2897;DHT22;1458;49.728;9.228;2022-11-20T11:51:53;5.40;99.90
2897;DHT22;1458;49.728;9.228;2022-11-20T11:54:30;5.20;99.90
2897;DHT22;1458;49.728;9.228;2022-11-20T11:57:05;5.20;99.90
2897;DHT22;1458;49.728;9.228;2022-11-20T11:59:49;5.00;99.90
2897;DHT22;1458;49.728;9.228;2022-11-20T12:02:32;4.90;99.90
2897;DHT22;1458;49.728;9.228;2022-11-20T12:05:16;4.90;99.90
2897;DHT22;1458;49.728;9.228;2022-11-20T12:07:47;4.90;99.90
2897;DHT22;1458;49.728;9.228;2022-11-20T12:10:22;4.90;99.90
2897;DHT22;1458;49.728;9.228;2022-11-20T12:12:54;5.00;99.90
2897;DHT22;1458;49.728;9.228;2022-11-20T12:15:30;5.20;99.90
2897;DHT22;1458;49.728;9.228;2022-11-20T12:18:00;5.10;99.90
2897;DHT22;1458;49.728;9.228;2022-11-20T12:20:35;4.90;99.90
2897;DHT22;1458;49.728;9.228;2022-11-20T12:23:14;5.10;99.90
2897;DHT22;1458;49.728;9.228;2022-11-20T12:25:48;5.30;99.90
2897;DHT22;1458;49.728;9.228;2022-11-20T12:28:32;5.40;99.90
2897;DHT22;1458;49.728;9.228;2022-11-20T12:31:19;5.40;99.90
2897;DHT22;1458;49.728;9.228;2022-11-20T12:34:05;5.40;99.90
2897;DHT22;1458;49.728;9.228;2022-11-20T12:36:52;5.40;99.90
2897;DHT22;1458;49.728;9.228;2022-11-20T12:39:31;5.50;99.90
2897;DHT22;1458;49.728;9.228;2022-11-20T12:42:40;5.60;99.90
2897;DHT22;1458;49.728;9.228;2022-11-20T12:45:58;5.70;99.90
2897;DHT22;1458;49.728;9.228;2022-11-20T12:48:56;5.90;99.90
2897;DHT22;1458;49.728;9.228;2022-11-20T12:52:02;5.90;99.90
2897;DHT22;1458;49.728;9.228;2022-11-20T12:55:07;5.60;99.90
2897;DHT22;1458;49.728;9.228;2022-11-20T12:57:45;5.50;99.90
2897;DHT22;1458;49.728;9.228;2022-11-20T13:00:19;5.50;99.90
2897;DHT22;1458;49.728;9.228;2022-11-20T13:03:28;5.40;99.90
2897;DHT22;1458;49.728;9.228;2022-11-20T13:06:10;5.40;99.90
2897;DHT22;1458;49.728;9.228;2022-11-20T13:08:43;5.60;99.90
2897;DHT22;1458;49.728;9.228;2022-11-20T13:11:20;5.60;99.90
2897;DHT22;1458;49.728;9.228;2022-11-20T13:14:12;5.60;99.90
2897;DHT22;1458;49.728;9.228;2022-11-20T13:16:51;5.60;99.90
2897;DHT22;1458;49.728;9.228;2022-11-20T13:19:21;5.50;99.90
2897;DHT22;1458;49.728;9.228;2022-11-20T13:21:49;5.50;99.90
2897;DHT22;1458;49.728;9.228;2022-11-20T13:24:26;5.50;99.90
2897;DHT22;1458;49.728;9.228;2022-11-20T13:27:18;5.30;99.90
2897;DHT22;1458;49.728;9.228;2022-11-20T13:29:59;5.30;99.90
2897;DHT22;1458;49.728;9.228;2022-11-20T13:32:29;5.20;99.90
2897;DHT22;1458;49.728;9.228;2022-11-20T13:34:59;5.20;99.90
2897;DHT22;1458;49.728;9.228;2022-11-20T13:37:31;5.30;99.90
2897;DHT22;1458;49.728;9.228;2022-11-20T13:40:20;5.40;99.90
2897;DHT22;1458;49.728;9.228;2022-11-20T13:42:56;5.40;99.90
2897;DHT22;1458;49.728;9.228;2022-11-20T13:45:30;5.50;99.90
2897;DHT22;1458;49.728;9.228;2022-11-20T13:48:02;5.50;99.90
2897;DHT22;1458;49.728;9.228;2022-11-20T13:50:49;5.60;99.90
2897;DHT22;1458;49.728;9.228;2022-11-20T13:53:37;5.50;99.90
2897;DHT22;1458;49.728;9.228;2022-11-20T13:56:26;5.40;99.90
2897;DHT22;1458;49.728;9.228;2022-11-20T13:59:07;5.60;99.90
2897;DHT22;1458;49.728;9.228;2022-11-20T14:01:37;5.70;99.90
2897;DHT22;1458;49.728;9.228;2022-11-20T14:04:07;5.70;99.90
2897;DHT22;1458;49.728;9.228;2022-11-20T14:06:40;5.90;99.90
2897;DHT22;1458;49.728;9.228;2022-11-20T14:09:11;5.90;99.90
2897;DHT22;1458;49.728;9.228;2022-11-20T14:11:47;5.80;99.90
2897;DHT22;1458;49.728;9.228;2022-11-20T14:14:17;5.80;99.90
2897;DHT22;1458;49.728;9.228;2022-11-20T14:16:48;5.90;99.90
2897;DHT22;1458;49.728;9.228;2022-11-20T14:19:27;5.90;99.90
2897;DHT22;1458;49.728;9.228;2022-11-20T14:22:09;5.90;99.90
2897;DHT22;1458;49.728;9.228;2022-11-20T14:24:41;5.70;99.90
2897;DHT22;1458;49.728;9.228;2022-11-20T14:27:15;5.80;99.90
2897;DHT22;1458;49.728;9.228;2022-11-20T14:29:46;5.80;99.90
2897;DHT22;1458;49.728;9.228;2022-11-20T14:32:17;5.80;99.90
2897;DHT22;1458;49.728;9.228;2022-11-20T14:34:48;5.80;99.90
2897;DHT22;1458;49.728;9.228;2022-11-20T14:37:20;5.60;99.90
2897;DHT22;1458;49.728;9.228;2022-11-20T14:39:50;5.50;99.90
2897;DHT22;1458;49.728;9.228;2022-11-20T14:42:22;5.50;99.90
2897;DHT22;1458;49.728;9.228;2022-11-20T14:44:50;5.50;99.90
2897;DHT22;1458;49.728;9.228;2022-11-20T14:47:21;5.50;99.90
2897;DHT22;1458;49.728;9.228;2022-11-20T14:49:51;5.50;99.90
2897;DHT22;1458;49.728;9.228;2022-11-20T14:52:21;5.40;99.90
2897;DHT22;1458;49.728;9.228;2022-11-20T14:54:51;5.40;99.90
2897;DHT22;1458;49.728;9.228;2022-11-20T14:57:26;5.40;99.90
2897;DHT22;1458;49.728;9.228;2022-11-20T15:00:06;5.40;99.90
2897;DHT22;1458;49.728;9.228;2022-11-20T15:02:39;5.40;99.90
2897;DHT22;1458;49.728;9.228;2022-11-20T15:05:08;5.40;99.90
2897;DHT22;1458;49.728;9.228;2022-11-20T15:07:38;5.40;99.90
2897;DHT22;1458;49.728;9.228;2022-11-20T15:10:13;5.30;99.90
2897;DHT22;1458;49.728;9.228;2022-11-20T15:12:49;5.30;99.90
2897;DHT22;1458;49.728;9.228;2022-11-20T15:15:21;5.30;99.90
2897;DHT22;1458;49.728;9.228;2022-11-20T15:17:52;5.30;99.90
2897;DHT22;1458;49.728;9.228;2022-11-20T15:20:21;5.30;99.90
2897;DHT22;1458;49.728;9.228;2022-11-20T15:22:51;5.30;99.90
2897;DHT22;1458;49.728;9.228;2022-11-20T15:25:19;5.30;99.90
2897;DHT22;1458;49.728;9.228;2022-11-20T15:27:51;5.30;99.90
2897;DHT22;1458;49.728;9.228;2022-11-20T15:30:22;5.40;99.90
2897;DHT22;1458;49.728;9.228;2022-11-20T15:32:50;5.30;99.90
2897;DHT22;1458;49.728;9.228;2022-11-20T15:35:17;5.20;99.90
2897;DHT22;1458;49.728;9.228;2022-11-20T15:37:45;5.10;99.90
2897;DHT22;1458;49.728;9.228;2022-11-20T15:40:12;5.00;99.90
2897;DHT22;1458;49.728;9.228;2022-11-20T15:42:40;4.90;99.90
2897;DHT22;1458;49.728;9.228;2022-11-20T15:45:32;4.70;99.90
2897;DHT22;1458;49.728;9.228;2022-11-20T15:48:03;4.70;99.90
2897;DHT22;1458;49.728;9.228;2022-11-20T15:50:37;4.70;99.90
2897;DHT22;1458;49.728;9.228;2022-11-20T15:53:05;4.60;99.90
2897;DHT22;1458;49.728;9.228;2022-11-20T15:55:33;4.60;99.90
2897;DHT22;1458;49.728;9.228;2022-11-20T15:58:01;4.60;99.90
2897;DHT22;1458;49.728;9.228;2022-11-20T16:00:29;4.50;99.90
2897;DHT22;1458;49.728;9.228;2022-11-20T16:02:57;4.50;99.90
2897;DHT22;1458;49.728;9.228;2022-11-20T16:05:28;4.50;99.90
2897;DHT22;1458;49.728;9.228;2022-11-20T16:07:56;4.40;99.90
2897;DHT22;1458;49.728;9.228;2022-11-20T16:10:23;4.50;99.90
2897;DHT22;1458;49.728;9.228;2022-11-20T16:12:50;4.50;99.90
2897;DHT22;1458;49.728;9.228;2022-11-20T16:15:39;4.50;99.90
2897;DHT22;1458;49.728;9.228;2022-11-20T16:18:14;4.60;99.90
2897;DHT22;1458;49.728;9.228;2022-11-20T16:20:43;4.60;99.90
2897;DHT22;1458;49.728;9.228;2022-11-20T16:23:11;4.60;99.90
2897;DHT22;1458;49.728;9.228;2022-11-20T16:25:39;4.70;99.90
2897;DHT22;1458;49.728;9.228;2022-11-20T16:28:06;4.60;99.90
2897;DHT22;1458;49.728;9.228;2022-11-20T16:30:34;4.60;99.90
2897;DHT22;1458;49.728;9.228;2022-11-20T16:33:03;4.60;99.90
2897;DHT22;1458;49.728;9.228;2022-11-20T16:35:31;4.60;99.90
2897;DHT22;1458;49.728;9.228;2022-11-20T16:37:59;4.60;99.90
2897;DHT22;1458;49.728;9.228;2022-11-20T16:40:26;4.60;99.90
2897;DHT22;1458;49.728;9.228;2022-11-20T16:42:54;4.70;99.90
2897;DHT22;1458;49.728;9.228;2022-11-20T16:45:22;4.70;99.90
2897;DHT22;1458;49.728;9.228;2022-11-20T16:47:50;4.70;99.90
2897;DHT22;1458;49.728;9.228;2022-11-20T16:50:19;4.90;99.90
2897;DHT22;1458;49.728;9.228;2022-11-20T16:52:46;4.70;99.90
2897;DHT22;1458;49.728;9.228;2022-11-20T16:55:14;4.70;99.90
2897;DHT22;1458;49.728;9.228;2022-11-20T16:57:41;4.60;99.90
2897;DHT22;1458;49.728;9.228;2022-11-20T17:00:10;4.60;99.90
2897;DHT22;1458;49.728;9.228;2022-11-20T17:02:37;4.60;99.90